sensor_id;sensor_type;location;lat;lon;timestamp;P1;durP1;ratioP1;P2;durP2;ratioP2
12603;SDS011;6367;52.508;13.284;2024-03-29T00:00:46;2.13;;;0.77;;
12603;SDS011;6367;52.508;13.284;2024-03-29T00:03:11;0.90;;;0.80;;
12603;SDS011;6367;52.508;13.284;2024-03-29T00:05:37;1.03;;;0.80;;
12603;SDS011;6367;52.508;13.284;2024-03-29T00:08:03;1.00;;;0.80;;
12603;SDS011;6367;52.508;13.284;2024-03-29T00:10:29;0.70;;;0.60;;
12603;SDS011;6367;52.508;13.284;2024-03-29T00:12:55;1.27;;;0.70;;
12603;SDS011;6367;52.508;13.284;2024-03-29T00:15:21;1.00;;;0.80;;
12603;SDS011;6367;52.508;13.284;2024-03-29T00:17:47;2.40;;;1.07;;
12603;SDS011;6367;52.508;13.284;2024-03-29T00:20:13;1.10;;;0.80;;
12603;SDS011;6367;52.508;13.284;2024-03-29T00:22:38;1.10;;;0.70;;
12603;SDS011;6367;52.508;13.284;2024-03-29T00:25:05;2.03;;;0.77;;
12603;SDS011;6367;52.508;13.284;2024-03-29T00:27:31;2.80;;;0.83;;
12603;SDS011;6367;52.508;13.284;2024-03-29T00:29:57;2.17;;;0.73;;
12603;SDS011;6367;52.508;13.284;2024-03-29T00:32:23;3.27;;;0.93;;
12603;SDS011;6367;52.508;13.284;2024-03-29T00:34:50;0.90;;;0.90;;
12603;SDS011;6367;52.508;13.284;2024-03-29T00:37:17;2.37;;;0.93;;
12603;SDS011;6367;52.508;13.284;2024-03-29T00:39:43;2.90;;;0.80;;
12603;SDS011;6367;52.508;13.284;2024-03-29T00:42:09;1.00;;;0.90;;
12603;SDS011;6367;52.508;13.284;2024-03-29T00:44:37;1.77;;;1.00;;
12603;SDS011;6367;52.508;13.284;2024-03-29T00:47:06;2.27;;;0.90;;
12603;SDS011;6367;52.508;13.284;2024-03-29T00:49:33;0.73;;;0.70;;
12603;SDS011;6367;52.508;13.284;2024-03-29T00:51:59;3.43;;;0.83;;
12603;SDS011;6367;52.508;13.284;2024-03-29T00:54:25;1.03;;;0.90;;
12603;SDS011;6367;52.508;13.284;2024-03-29T00:56:51;3.40;;;1.30;;
12603;SDS011;6367;52.508;13.284;2024-03-29T00:59:17;1.70;;;1.30;;
12603;SDS011;6367;52.508;13.284;2024-03-29T01:01:43;1.87;;;1.20;;
12603;SDS011;6367;52.508;13.284;2024-03-29T01:04:09;3.30;;;1.10;;
12603;SDS011;6367;52.508;13.284;2024-03-29T01:06:35;1.47;;;0.80;;
12603;SDS011;6367;52.508;13.284;2024-03-29T01:09:01;0.90;;;0.90;;
12603;SDS011;6367;52.508;13.284;2024-03-29T01:11:28;2.30;;;0.70;;
12603;SDS011;6367;52.508;13.284;2024-03-29T01:13:54;1.17;;;0.80;;
12603;SDS011;6367;52.508;13.284;2024-03-29T01:16:20;3.83;;;1.20;;
12603;SDS011;6367;52.508;13.284;2024-03-29T01:18:45;1.77;;;1.03;;
12603;SDS011;6367;52.508;13.284;2024-03-29T01:21:12;1.57;;;0.90;;
12603;SDS011;6367;52.508;13.284;2024-03-29T01:23:38;1.27;;;1.00;;
12603;SDS011;6367;52.508;13.284;2024-03-29T01:26:04;2.43;;;0.80;;
12603;SDS011;6367;52.508;13.284;2024-03-29T01:28:30;1.20;;;1.03;;
12603;SDS011;6367;52.508;13.284;2024-03-29T01:30:56;1.70;;;1.20;;
12603;SDS011;6367;52.508;13.284;2024-03-29T01:33:23;2.33;;;1.00;;
12603;SDS011;6367;52.508;13.284;2024-03-29T01:35:49;2.03;;;0.90;;
12603;SDS011;6367;52.508;13.284;2024-03-29T01:38:15;1.87;;;0.80;;
12603;SDS011;6367;52.508;13.284;2024-03-29T01:40:41;1.10;;;0.93;;
12603;SDS011;6367;52.508;13.284;2024-03-29T01:43:06;2.80;;;0.90;;
12603;SDS011;6367;52.508;13.284;2024-03-29T01:45:38;2.03;;;1.23;;
12603;SDS011;6367;52.508;13.284;2024-03-29T01:48:05;0.90;;;0.90;;
12603;SDS011;6367;52.508;13.284;2024-03-29T01:50:32;1.80;;;1.17;;
12603;SDS011;6367;52.508;13.284;2024-03-29T01:52:58;1.30;;;1.03;;
12603;SDS011;6367;52.508;13.284;2024-03-29T01:55:25;1.10;;;1.00;;
12603;SDS011;6367;52.508;13.284;2024-03-29T01:57:50;2.37;;;1.40;;
12603;SDS011;6367;52.508;13.284;2024-03-29T02:00:17;1.67;;;1.17;;
12603;SDS011;6367;52.508;13.284;2024-03-29T02:02:43;3.07;;;1.60;;
12603;SDS011;6367;52.508;13.284;2024-03-29T02:05:09;2.10;;;1.63;;
12603;SDS011;6367;52.508;13.284;2024-03-29T02:07:35;1.33;;;1.23;;
12603;SDS011;6367;52.508;13.284;2024-03-29T02:10:02;1.93;;;1.23;;
12603;SDS011;6367;52.508;13.284;2024-03-29T02:12:28;1.53;;;1.43;;
12603;SDS011;6367;52.508;13.284;2024-03-29T02:14:54;1.80;;;1.37;;
12603;SDS011;6367;52.508;13.284;2024-03-29T02:17:20;1.83;;;1.30;;
12603;SDS011;6367;52.508;13.284;2024-03-29T02:19:46;1.83;;;1.30;;
12603;SDS011;6367;52.508;13.284;2024-03-29T02:22:12;3.37;;;1.77;;
12603;SDS011;6367;52.508;13.284;2024-03-29T02:24:40;1.40;;;1.30;;
12603;SDS011;6367;52.508;13.284;2024-03-29T02:27:06;2.00;;;1.37;;
12603;SDS011;6367;52.508;13.284;2024-03-29T02:29:32;2.20;;;1.33;;
12603;SDS011;6367;52.508;13.284;2024-03-29T02:32:00;1.90;;;1.20;;
12603;SDS011;6367;52.508;13.284;2024-03-29T02:34:28;1.50;;;1.30;;
12603;SDS011;6367;52.508;13.284;2024-03-29T02:36:54;4.83;;;2.63;;
12603;SDS011;6367;52.508;13.284;2024-03-29T02:39:19;1.70;;;1.33;;
12603;SDS011;6367;52.508;13.284;2024-03-29T02:41:45;2.40;;;1.43;;
12603;SDS011;6367;52.508;13.284;2024-03-29T02:44:11;1.73;;;1.60;;
12603;SDS011;6367;52.508;13.284;2024-03-29T02:46:36;2.30;;;1.30;;
12603;SDS011;6367;52.508;13.284;2024-03-29T02:49:02;3.37;;;1.97;;
12603;SDS011;6367;52.508;13.284;2024-03-29T02:51:28;2.23;;;1.50;;
12603;SDS011;6367;52.508;13.284;2024-03-29T02:53:54;5.50;;;1.60;;
12603;SDS011;6367;52.508;13.284;2024-03-29T02:56:19;4.67;;;2.03;;
12603;SDS011;6367;52.508;13.284;2024-03-29T02:58:48;2.80;;;1.63;;
12603;SDS011;6367;52.508;13.284;2024-03-29T03:01:14;2.20;;;1.40;;
12603;SDS011;6367;52.508;13.284;2024-03-29T03:03:39;2.60;;;2.00;;
12603;SDS011;6367;52.508;13.284;2024-03-29T03:06:05;3.13;;;1.80;;
12603;SDS011;6367;52.508;13.284;2024-03-29T03:08:31;2.20;;;1.53;;
12603;SDS011;6367;52.508;13.284;2024-03-29T03:11:15;2.20;;;1.80;;
12603;SDS011;6367;52.508;13.284;2024-03-29T03:13:40;1.87;;;1.40;;
12603;SDS011;6367;52.508;13.284;2024-03-29T03:16:06;2.13;;;1.47;;
12603;SDS011;6367;52.508;13.284;2024-03-29T03:18:32;2.30;;;1.60;;
12603;SDS011;6367;52.508;13.284;2024-03-29T03:20:57;3.77;;;1.47;;
12603;SDS011;6367;52.508;13.284;2024-03-29T03:23:24;3.93;;;2.10;;
12603;SDS011;6367;52.508;13.284;2024-03-29T03:25:53;2.63;;;1.90;;
12603;SDS011;6367;52.508;13.284;2024-03-29T03:28:20;2.50;;;1.70;;
12603;SDS011;6367;52.508;13.284;2024-03-29T03:30:45;2.53;;;1.70;;
12603;SDS011;6367;52.508;13.284;2024-03-29T03:33:11;2.83;;;1.70;;
12603;SDS011;6367;52.508;13.284;2024-03-29T03:35:37;2.03;;;1.77;;
12603;SDS011;6367;52.508;13.284;2024-03-29T03:38:02;2.80;;;1.77;;
12603;SDS011;6367;52.508;13.284;2024-03-29T03:40:28;1.83;;;1.73;;
12603;SDS011;6367;52.508;13.284;2024-03-29T03:42:54;2.97;;;1.90;;
12603;SDS011;6367;52.508;13.284;2024-03-29T03:45:19;3.00;;;2.00;;
12603;SDS011;6367;52.508;13.284;2024-03-29T03:47:45;2.03;;;1.77;;
12603;SDS011;6367;52.508;13.284;2024-03-29T03:50:11;1.93;;;1.63;;
12603;SDS011;6367;52.508;13.284;2024-03-29T03:52:36;2.70;;;1.80;;
12603;SDS011;6367;52.508;13.284;2024-03-29T03:55:02;2.50;;;1.87;;
12603;SDS011;6367;52.508;13.284;2024-03-29T03:57:28;1.90;;;1.80;;
12603;SDS011;6367;52.508;13.284;2024-03-29T03:59:53;3.07;;;1.83;;
12603;SDS011;6367;52.508;13.284;2024-03-29T04:02:19;1.90;;;1.73;;
12603;SDS011;6367;52.508;13.284;2024-03-29T04:04:48;2.60;;;1.50;;
12603;SDS011;6367;52.508;13.284;2024-03-29T04:07:13;2.10;;;1.93;;
12603;SDS011;6367;52.508;13.284;2024-03-29T04:09:39;2.20;;;2.00;;
12603;SDS011;6367;52.508;13.284;2024-03-29T04:12:05;1.50;;;1.40;;
12603;SDS011;6367;52.508;13.284;2024-03-29T04:14:31;2.67;;;2.10;;
12603;SDS011;6367;52.508;13.284;2024-03-29T04:16:56;3.57;;;1.83;;
12603;SDS011;6367;52.508;13.284;2024-03-29T04:19:22;2.00;;;1.77;;
12603;SDS011;6367;52.508;13.284;2024-03-29T04:21:47;3.20;;;1.83;;
12603;SDS011;6367;52.508;13.284;2024-03-29T04:24:13;3.73;;;1.80;;
12603;SDS011;6367;52.508;13.284;2024-03-29T04:26:39;2.50;;;1.93;;
12603;SDS011;6367;52.508;13.284;2024-03-29T04:29:05;3.03;;;2.03;;
12603;SDS011;6367;52.508;13.284;2024-03-29T04:31:30;1.43;;;1.33;;
12603;SDS011;6367;52.508;13.284;2024-03-29T04:33:56;1.47;;;1.30;;
12603;SDS011;6367;52.508;13.284;2024-03-29T04:36:22;2.90;;;1.80;;
12603;SDS011;6367;52.508;13.284;2024-03-29T04:38:47;1.97;;;1.70;;
12603;SDS011;6367;52.508;13.284;2024-03-29T04:41:13;2.53;;;1.30;;
12603;SDS011;6367;52.508;13.284;2024-03-29T04:43:39;2.80;;;1.40;;
12603;SDS011;6367;52.508;13.284;2024-03-29T04:46:12;2.00;;;1.53;;
12603;SDS011;6367;52.508;13.284;2024-03-29T04:48:39;1.20;;;1.10;;
12603;SDS011;6367;52.508;13.284;2024-03-29T04:51:06;2.93;;;1.40;;
12603;SDS011;6367;52.508;13.284;2024-03-29T04:53:32;1.90;;;1.37;;
12603;SDS011;6367;52.508;13.284;2024-03-29T04:55:58;3.93;;;1.20;;
12603;SDS011;6367;52.508;13.284;2024-03-29T04:58:24;4.20;;;1.40;;
12603;SDS011;6367;52.508;13.284;2024-03-29T05:00:51;2.60;;;1.47;;
12603;SDS011;6367;52.508;13.284;2024-03-29T05:03:17;2.50;;;1.50;;
12603;SDS011;6367;52.508;13.284;2024-03-29T05:05:44;1.30;;;1.20;;
12603;SDS011;6367;52.508;13.284;2024-03-29T05:08:10;2.33;;;1.20;;
12603;SDS011;6367;52.508;13.284;2024-03-29T05:10:36;1.90;;;1.10;;
12603;SDS011;6367;52.508;13.284;2024-03-29T05:13:02;1.63;;;1.23;;
12603;SDS011;6367;52.508;13.284;2024-03-29T05:15:28;2.03;;;1.27;;
12603;SDS011;6367;52.508;13.284;2024-03-29T05:17:54;2.10;;;1.50;;
12603;SDS011;6367;52.508;13.284;2024-03-29T05:20:20;2.90;;;1.30;;
12603;SDS011;6367;52.508;13.284;2024-03-29T05:22:45;2.50;;;1.37;;
12603;SDS011;6367;52.508;13.284;2024-03-29T05:25:11;2.73;;;1.30;;
12603;SDS011;6367;52.508;13.284;2024-03-29T05:27:36;2.50;;;1.20;;
12603;SDS011;6367;52.508;13.284;2024-03-29T05:30:03;2.23;;;1.20;;
12603;SDS011;6367;52.508;13.284;2024-03-29T05:32:29;1.60;;;1.20;;
12603;SDS011;6367;52.508;13.284;2024-03-29T05:34:55;2.73;;;1.10;;
12603;SDS011;6367;52.508;13.284;2024-03-29T05:37:21;1.70;;;0.97;;
12603;SDS011;6367;52.508;13.284;2024-03-29T05:39:50;3.07;;;1.00;;
12603;SDS011;6367;52.508;13.284;2024-03-29T05:42:24;2.83;;;1.27;;
12603;SDS011;6367;52.508;13.284;2024-03-29T05:44:51;1.57;;;1.23;;
12603;SDS011;6367;52.508;13.284;2024-03-29T05:47:18;4.33;;;1.80;;
12603;SDS011;6367;52.508;13.284;2024-03-29T05:49:44;1.90;;;1.30;;
12603;SDS011;6367;52.508;13.284;2024-03-29T05:52:09;2.33;;;1.20;;
12603;SDS011;6367;52.508;13.284;2024-03-29T05:54:38;2.73;;;1.30;;
12603;SDS011;6367;52.508;13.284;2024-03-29T05:57:07;2.70;;;1.17;;
12603;SDS011;6367;52.508;13.284;2024-03-29T05:59:34;1.60;;;1.10;;
12603;SDS011;6367;52.508;13.284;2024-03-29T06:02:00;1.77;;;1.20;;
12603;SDS011;6367;52.508;13.284;2024-03-29T06:04:25;1.63;;;1.00;;
12603;SDS011;6367;52.508;13.284;2024-03-29T06:07:01;3.73;;;1.17;;
12603;SDS011;6367;52.508;13.284;2024-03-29T06:09:27;3.80;;;1.70;;
12603;SDS011;6367;52.508;13.284;2024-03-29T06:11:54;1.97;;;1.20;;
12603;SDS011;6367;52.508;13.284;2024-03-29T06:14:20;2.80;;;1.30;;
12603;SDS011;6367;52.508;13.284;2024-03-29T06:17:05;2.57;;;1.60;;
12603;SDS011;6367;52.508;13.284;2024-03-29T06:19:49;1.93;;;1.20;;
12603;SDS011;6367;52.508;13.284;2024-03-29T06:22:23;2.53;;;1.50;;
12603;SDS011;6367;52.508;13.284;2024-03-29T06:24:49;3.43;;;1.40;;
12603;SDS011;6367;52.508;13.284;2024-03-29T06:27:18;1.37;;;1.27;;
12603;SDS011;6367;52.508;13.284;2024-03-29T06:29:47;1.90;;;1.10;;
12603;SDS011;6367;52.508;13.284;2024-03-29T06:32:14;2.10;;;1.13;;
12603;SDS011;6367;52.508;13.284;2024-03-29T06:34:39;1.73;;;0.90;;
12603;SDS011;6367;52.508;13.284;2024-03-29T06:37:05;2.00;;;1.27;;
12603;SDS011;6367;52.508;13.284;2024-03-29T06:39:32;3.43;;;1.00;;
12603;SDS011;6367;52.508;13.284;2024-03-29T06:41:58;1.47;;;1.10;;
12603;SDS011;6367;52.508;13.284;2024-03-29T06:44:24;2.10;;;1.27;;
12603;SDS011;6367;52.508;13.284;2024-03-29T06:46:50;3.00;;;1.30;;
12603;SDS011;6367;52.508;13.284;2024-03-29T06:49:16;4.63;;;1.80;;
12603;SDS011;6367;52.508;13.284;2024-03-29T06:51:42;2.83;;;2.33;;
12603;SDS011;6367;52.508;13.284;2024-03-29T06:54:08;4.63;;;3.80;;
12603;SDS011;6367;52.508;13.284;2024-03-29T06:56:34;10.23;;;4.37;;
12603;SDS011;6367;52.508;13.284;2024-03-29T06:58:59;7.87;;;4.50;;
12603;SDS011;6367;52.508;13.284;2024-03-29T07:01:25;5.63;;;3.47;;
12603;SDS011;6367;52.508;13.284;2024-03-29T07:03:51;4.17;;;2.53;;
12603;SDS011;6367;52.508;13.284;2024-03-29T07:06:16;3.47;;;2.67;;
12603;SDS011;6367;52.508;13.284;2024-03-29T07:08:42;2.70;;;1.67;;
12603;SDS011;6367;52.508;13.284;2024-03-29T07:11:08;2.70;;;1.67;;
12603;SDS011;6367;52.508;13.284;2024-03-29T07:13:35;4.53;;;1.77;;
12603;SDS011;6367;52.508;13.284;2024-03-29T07:16:00;2.37;;;1.60;;
12603;SDS011;6367;52.508;13.284;2024-03-29T07:18:27;3.17;;;2.00;;
12603;SDS011;6367;52.508;13.284;2024-03-29T07:20:53;4.13;;;3.07;;
12603;SDS011;6367;52.508;13.284;2024-03-29T07:23:19;5.93;;;3.40;;
12603;SDS011;6367;52.508;13.284;2024-03-29T07:25:45;8.20;;;4.57;;
12603;SDS011;6367;52.508;13.284;2024-03-29T07:28:22;5.80;;;4.47;;
12603;SDS011;6367;52.508;13.284;2024-03-29T07:30:48;6.97;;;4.10;;
12603;SDS011;6367;52.508;13.284;2024-03-29T07:33:15;5.50;;;3.67;;
12603;SDS011;6367;52.508;13.284;2024-03-29T07:35:41;4.70;;;3.53;;
12603;SDS011;6367;52.508;13.284;2024-03-29T07:38:07;4.10;;;2.60;;
12603;SDS011;6367;52.508;13.284;2024-03-29T07:40:33;5.03;;;2.70;;
12603;SDS011;6367;52.508;13.284;2024-03-29T07:42:59;2.60;;;2.00;;
12603;SDS011;6367;52.508;13.284;2024-03-29T07:45:25;5.90;;;1.93;;
12603;SDS011;6367;52.508;13.284;2024-03-29T07:47:52;2.37;;;1.10;;
12603;SDS011;6367;52.508;13.284;2024-03-29T07:50:21;3.80;;;1.40;;
12603;SDS011;6367;52.508;13.284;2024-03-29T07:52:47;1.37;;;1.17;;
12603;SDS011;6367;52.508;13.284;2024-03-29T07:55:13;1.67;;;0.90;;
12603;SDS011;6367;52.508;13.284;2024-03-29T07:57:39;1.93;;;1.30;;
12603;SDS011;6367;52.508;13.284;2024-03-29T08:00:05;2.33;;;1.20;;
12603;SDS011;6367;52.508;13.284;2024-03-29T08:02:33;1.90;;;0.93;;
12603;SDS011;6367;52.508;13.284;2024-03-29T08:04:59;2.03;;;0.87;;
12603;SDS011;6367;52.508;13.284;2024-03-29T08:07:25;1.10;;;0.90;;
12603;SDS011;6367;52.508;13.284;2024-03-29T08:09:50;1.30;;;0.93;;
12603;SDS011;6367;52.508;13.284;2024-03-29T08:12:16;1.90;;;1.07;;
12603;SDS011;6367;52.508;13.284;2024-03-29T08:14:42;1.57;;;1.10;;
12603;SDS011;6367;52.508;13.284;2024-03-29T08:17:08;2.00;;;1.20;;
12603;SDS011;6367;52.508;13.284;2024-03-29T08:19:43;0.80;;;0.80;;
12603;SDS011;6367;52.508;13.284;2024-03-29T08:22:09;1.27;;;0.80;;
12603;SDS011;6367;52.508;13.284;2024-03-29T08:24:38;1.10;;;0.90;;
12603;SDS011;6367;52.508;13.284;2024-03-29T08:27:03;1.30;;;0.93;;
12603;SDS011;6367;52.508;13.284;2024-03-29T08:29:29;3.30;;;1.00;;
12603;SDS011;6367;52.508;13.284;2024-03-29T08:31:55;0.83;;;0.83;;
12603;SDS011;6367;52.508;13.284;2024-03-29T08:34:20;1.93;;;1.20;;
12603;SDS011;6367;52.508;13.284;2024-03-29T08:36:46;1.30;;;0.90;;
12603;SDS011;6367;52.508;13.284;2024-03-29T08:39:12;1.80;;;1.03;;
12603;SDS011;6367;52.508;13.284;2024-03-29T08:41:38;1.03;;;0.90;;
12603;SDS011;6367;52.508;13.284;2024-03-29T08:44:04;1.50;;;0.97;;
12603;SDS011;6367;52.508;13.284;2024-03-29T08:46:30;3.30;;;1.00;;
12603;SDS011;6367;52.508;13.284;2024-03-29T08:48:56;2.03;;;1.00;;
12603;SDS011;6367;52.508;13.284;2024-03-29T08:51:21;1.43;;;0.90;;
12603;SDS011;6367;52.508;13.284;2024-03-29T08:53:47;1.17;;;0.90;;
12603;SDS011;6367;52.508;13.284;2024-03-29T08:56:13;4.63;;;1.77;;
12603;SDS011;6367;52.508;13.284;2024-03-29T08:58:40;1.80;;;0.90;;
12603;SDS011;6367;52.508;13.284;2024-03-29T09:01:06;4.40;;;1.30;;
12603;SDS011;6367;52.508;13.284;2024-03-29T09:03:32;1.77;;;1.10;;
12603;SDS011;6367;52.508;13.284;2024-03-29T09:05:58;1.90;;;1.20;;
12603;SDS011;6367;52.508;13.284;2024-03-29T09:08:23;2.00;;;0.90;;
12603;SDS011;6367;52.508;13.284;2024-03-29T09:10:49;2.23;;;1.10;;
12603;SDS011;6367;52.508;13.284;2024-03-29T09:13:15;1.93;;;1.00;;
12603;SDS011;6367;52.508;13.284;2024-03-29T09:15:41;1.70;;;1.20;;
12603;SDS011;6367;52.508;13.284;2024-03-29T09:18:07;2.33;;;1.00;;
12603;SDS011;6367;52.508;13.284;2024-03-29T09:20:42;1.13;;;0.90;;
12603;SDS011;6367;52.508;13.284;2024-03-29T09:23:09;1.20;;;1.10;;
12603;SDS011;6367;52.508;13.284;2024-03-29T09:25:34;1.33;;;1.20;;
12603;SDS011;6367;52.508;13.284;2024-03-29T09:28:04;3.33;;;1.30;;
12603;SDS011;6367;52.508;13.284;2024-03-29T09:30:30;2.20;;;1.00;;
12603;SDS011;6367;52.508;13.284;2024-03-29T09:32:56;3.27;;;1.07;;
12603;SDS011;6367;52.508;13.284;2024-03-29T09:35:21;2.67;;;1.13;;
12603;SDS011;6367;52.508;13.284;2024-03-29T09:37:47;2.93;;;0.80;;
12603;SDS011;6367;52.508;13.284;2024-03-29T09:40:13;2.47;;;1.27;;
12603;SDS011;6367;52.508;13.284;2024-03-29T09:42:39;2.93;;;1.20;;
12603;SDS011;6367;52.508;13.284;2024-03-29T09:45:05;1.50;;;0.90;;
12603;SDS011;6367;52.508;13.284;2024-03-29T09:47:32;2.70;;;1.07;;
12603;SDS011;6367;52.508;13.284;2024-03-29T09:50:02;1.83;;;1.00;;
12603;SDS011;6367;52.508;13.284;2024-03-29T09:52:29;2.40;;;0.80;;
12603;SDS011;6367;52.508;13.284;2024-03-29T09:54:57;1.80;;;0.93;;
12603;SDS011;6367;52.508;13.284;2024-03-29T09:57:23;1.70;;;1.13;;
12603;SDS011;6367;52.508;13.284;2024-03-29T09:59:55;2.43;;;1.00;;
12603;SDS011;6367;52.508;13.284;2024-03-29T10:02:21;1.63;;;1.17;;
12603;SDS011;6367;52.508;13.284;2024-03-29T10:04:52;2.73;;;1.37;;
12603;SDS011;6367;52.508;13.284;2024-03-29T10:07:20;3.80;;;1.07;;
12603;SDS011;6367;52.508;13.284;2024-03-29T10:09:47;2.17;;;1.13;;
12603;SDS011;6367;52.508;13.284;2024-03-29T10:12:13;2.27;;;0.97;;
12603;SDS011;6367;52.508;13.284;2024-03-29T10:14:48;1.67;;;0.90;;
12603;SDS011;6367;52.508;13.284;2024-03-29T10:17:18;1.73;;;1.00;;
12603;SDS011;6367;52.508;13.284;2024-03-29T10:19:44;1.77;;;1.00;;
12603;SDS011;6367;52.508;13.284;2024-03-29T10:22:10;1.10;;;0.90;;
12603;SDS011;6367;52.508;13.284;2024-03-29T10:24:36;5.03;;;1.03;;
12603;SDS011;6367;52.508;13.284;2024-03-29T10:27:03;2.20;;;1.23;;
12603;SDS011;6367;52.508;13.284;2024-03-29T10:29:29;1.90;;;0.87;;
12603;SDS011;6367;52.508;13.284;2024-03-29T10:31:55;2.00;;;0.90;;
12603;SDS011;6367;52.508;13.284;2024-03-29T10:34:21;2.10;;;0.90;;
12603;SDS011;6367;52.508;13.284;2024-03-29T10:36:49;1.23;;;0.90;;
12603;SDS011;6367;52.508;13.284;2024-03-29T10:39:18;1.90;;;1.20;;
12603;SDS011;6367;52.508;13.284;2024-03-29T10:41:45;1.20;;;1.10;;
12603;SDS011;6367;52.508;13.284;2024-03-29T10:44:12;2.30;;;1.00;;
12603;SDS011;6367;52.508;13.284;2024-03-29T10:46:39;3.00;;;1.00;;
12603;SDS011;6367;52.508;13.284;2024-03-29T10:49:06;2.10;;;1.00;;
12603;SDS011;6367;52.508;13.284;2024-03-29T10:51:39;1.27;;;1.10;;
12603;SDS011;6367;52.508;13.284;2024-03-29T10:54:09;1.20;;;1.00;;
12603;SDS011;6367;52.508;13.284;2024-03-29T10:56:36;1.73;;;1.20;;
12603;SDS011;6367;52.508;13.284;2024-03-29T10:59:12;1.77;;;0.90;;
12603;SDS011;6367;52.508;13.284;2024-03-29T11:01:49;1.80;;;1.00;;
12603;SDS011;6367;52.508;13.284;2024-03-29T11:04:24;1.33;;;1.00;;
12603;SDS011;6367;52.508;13.284;2024-03-29T11:06:57;2.30;;;1.17;;
12603;SDS011;6367;52.508;13.284;2024-03-29T11:09:25;2.20;;;0.80;;
12603;SDS011;6367;52.508;13.284;2024-03-29T11:11:54;2.00;;;0.90;;
12603;SDS011;6367;52.508;13.284;2024-03-29T11:14:26;2.40;;;0.90;;
12603;SDS011;6367;52.508;13.284;2024-03-29T11:17:05;2.93;;;1.10;;
12603;SDS011;6367;52.508;13.284;2024-03-29T11:19:32;1.10;;;1.00;;
12603;SDS011;6367;52.508;13.284;2024-03-29T11:21:58;2.23;;;1.07;;
12603;SDS011;6367;52.508;13.284;2024-03-29T11:24:24;2.57;;;1.00;;
12603;SDS011;6367;52.508;13.284;2024-03-29T11:26:52;1.30;;;0.90;;
12603;SDS011;6367;52.508;13.284;2024-03-29T11:29:22;0.93;;;0.80;;
12603;SDS011;6367;52.508;13.284;2024-03-29T11:31:58;2.60;;;0.90;;
12603;SDS011;6367;52.508;13.284;2024-03-29T11:34:24;1.90;;;1.17;;
12603;SDS011;6367;52.508;13.284;2024-03-29T11:36:50;0.80;;;0.80;;
12603;SDS011;6367;52.508;13.284;2024-03-29T11:39:19;2.50;;;1.30;;
12603;SDS011;6367;52.508;13.284;2024-03-29T11:41:46;1.40;;;1.07;;
12603;SDS011;6367;52.508;13.284;2024-03-29T11:44:13;2.43;;;1.00;;
12603;SDS011;6367;52.508;13.284;2024-03-29T11:46:39;1.00;;;0.90;;
12603;SDS011;6367;52.508;13.284;2024-03-29T11:49:05;2.50;;;1.10;;
12603;SDS011;6367;52.508;13.284;2024-03-29T11:51:31;1.43;;;1.03;;
12603;SDS011;6367;52.508;13.284;2024-03-29T11:53:58;1.43;;;0.90;;
12603;SDS011;6367;52.508;13.284;2024-03-29T11:56:25;1.10;;;1.00;;
12603;SDS011;6367;52.508;13.284;2024-03-29T11:58:51;4.30;;;1.20;;
12603;SDS011;6367;52.508;13.284;2024-03-29T12:01:18;1.33;;;1.00;;
12603;SDS011;6367;52.508;13.284;2024-03-29T12:03:43;1.50;;;0.93;;
12603;SDS011;6367;52.508;13.284;2024-03-29T12:06:10;1.67;;;1.03;;
12603;SDS011;6367;52.508;13.284;2024-03-29T12:08:37;0.93;;;0.87;;
12603;SDS011;6367;52.508;13.284;2024-03-29T12:11:04;1.47;;;1.20;;
12603;SDS011;6367;52.508;13.284;2024-03-29T12:13:31;1.87;;;1.27;;
12603;SDS011;6367;52.508;13.284;2024-03-29T12:15:57;1.50;;;1.00;;
12603;SDS011;6367;52.508;13.284;2024-03-29T12:18:24;1.70;;;1.00;;
12603;SDS011;6367;52.508;13.284;2024-03-29T12:20:51;1.23;;;1.10;;
12603;SDS011;6367;52.508;13.284;2024-03-29T12:23:20;2.00;;;1.10;;
12603;SDS011;6367;52.508;13.284;2024-03-29T12:25:47;1.10;;;0.80;;
12603;SDS011;6367;52.508;13.284;2024-03-29T12:28:14;1.30;;;1.10;;
12603;SDS011;6367;52.508;13.284;2024-03-29T12:30:41;1.53;;;0.90;;
12603;SDS011;6367;52.508;13.284;2024-03-29T12:33:11;1.40;;;0.90;;
12603;SDS011;6367;52.508;13.284;2024-03-29T12:35:44;1.30;;;0.90;;
12603;SDS011;6367;52.508;13.284;2024-03-29T12:38:14;1.40;;;0.90;;
12603;SDS011;6367;52.508;13.284;2024-03-29T12:40:42;1.13;;;0.90;;
12603;SDS011;6367;52.508;13.284;2024-03-29T12:43:09;1.57;;;1.00;;
12603;SDS011;6367;52.508;13.284;2024-03-29T12:45:39;1.20;;;0.90;;
12603;SDS011;6367;52.508;13.284;2024-03-29T12:48:12;1.50;;;0.90;;
12603;SDS011;6367;52.508;13.284;2024-03-29T12:50:44;2.27;;;0.97;;
12603;SDS011;6367;52.508;13.284;2024-03-29T12:53:11;1.10;;;1.00;;
12603;SDS011;6367;52.508;13.284;2024-03-29T12:55:41;1.20;;;0.90;;
12603;SDS011;6367;52.508;13.284;2024-03-29T12:58:12;1.33;;;1.10;;
12603;SDS011;6367;52.508;13.284;2024-03-29T13:00:40;2.00;;;0.90;;
12603;SDS011;6367;52.508;13.284;2024-03-29T13:03:06;1.40;;;0.80;;
12603;SDS011;6367;52.508;13.284;2024-03-29T13:05:33;0.90;;;0.80;;
12603;SDS011;6367;52.508;13.284;2024-03-29T13:08:08;1.30;;;0.90;;
12603;SDS011;6367;52.508;13.284;2024-03-29T13:10:40;1.43;;;1.00;;
12603;SDS011;6367;52.508;13.284;2024-03-29T13:13:07;1.47;;;0.70;;
12603;SDS011;6367;52.508;13.284;2024-03-29T13:15:33;1.10;;;0.80;;
12603;SDS011;6367;52.508;13.284;2024-03-29T13:18:00;0.80;;;0.80;;
12603;SDS011;6367;52.508;13.284;2024-03-29T13:20:27;1.33;;;1.20;;
12603;SDS011;6367;52.508;13.284;2024-03-29T13:22:52;1.00;;;0.80;;
12603;SDS011;6367;52.508;13.284;2024-03-29T13:25:20;2.20;;;1.00;;
12603;SDS011;6367;52.508;13.284;2024-03-29T13:27:47;1.67;;;0.87;;
12603;SDS011;6367;52.508;13.284;2024-03-29T13:30:18;2.37;;;1.30;;
12603;SDS011;6367;52.508;13.284;2024-03-29T13:32:45;1.23;;;0.93;;
12603;SDS011;6367;52.508;13.284;2024-03-29T13:35:11;1.47;;;1.10;;
12603;SDS011;6367;52.508;13.284;2024-03-29T13:37:43;1.50;;;1.20;;
12603;SDS011;6367;52.508;13.284;2024-03-29T13:40:12;1.37;;;1.00;;
12603;SDS011;6367;52.508;13.284;2024-03-29T13:42:39;1.00;;;0.90;;
12603;SDS011;6367;52.508;13.284;2024-03-29T13:45:05;1.77;;;1.13;;
12603;SDS011;6367;52.508;13.284;2024-03-29T13:47:35;2.17;;;1.00;;
12603;SDS011;6367;52.508;13.284;2024-03-29T13:50:03;1.83;;;1.20;;
12603;SDS011;6367;52.508;13.284;2024-03-29T13:52:30;1.93;;;1.60;;
12603;SDS011;6367;52.508;13.284;2024-03-29T13:54:55;3.43;;;1.00;;
12603;SDS011;6367;52.508;13.284;2024-03-29T13:57:21;1.63;;;1.53;;
12603;SDS011;6367;52.508;13.284;2024-03-29T13:59:47;1.60;;;1.10;;
12603;SDS011;6367;52.508;13.284;2024-03-29T14:02:13;2.30;;;1.20;;
12603;SDS011;6367;52.508;13.284;2024-03-29T14:04:44;1.20;;;1.10;;
12603;SDS011;6367;52.508;13.284;2024-03-29T14:07:11;1.53;;;1.00;;
12603;SDS011;6367;52.508;13.284;2024-03-29T14:09:39;1.37;;;1.00;;
12603;SDS011;6367;52.508;13.284;2024-03-29T14:12:05;1.83;;;1.00;;
12603;SDS011;6367;52.508;13.284;2024-03-29T14:14:31;1.33;;;0.90;;
12603;SDS011;6367;52.508;13.284;2024-03-29T14:16:58;1.93;;;1.17;;
12603;SDS011;6367;52.508;13.284;2024-03-29T14:19:29;1.43;;;1.00;;
12603;SDS011;6367;52.508;13.284;2024-03-29T14:22:04;1.80;;;1.07;;
12603;SDS011;6367;52.508;13.284;2024-03-29T14:24:31;1.03;;;0.90;;
12603;SDS011;6367;52.508;13.284;2024-03-29T14:27:00;1.67;;;1.20;;
12603;SDS011;6367;52.508;13.284;2024-03-29T14:29:28;1.30;;;0.97;;
12603;SDS011;6367;52.508;13.284;2024-03-29T14:31:54;2.90;;;1.50;;
12603;SDS011;6367;52.508;13.284;2024-03-29T14:34:20;1.43;;;1.00;;
12603;SDS011;6367;52.508;13.284;2024-03-29T14:36:46;2.00;;;1.10;;
12603;SDS011;6367;52.508;13.284;2024-03-29T14:39:12;1.30;;;1.00;;
12603;SDS011;6367;52.508;13.284;2024-03-29T14:41:41;1.00;;;0.90;;
12603;SDS011;6367;52.508;13.284;2024-03-29T14:44:08;1.20;;;1.10;;
12603;SDS011;6367;52.508;13.284;2024-03-29T14:46:34;1.97;;;1.20;;